createdAt,value
2022-09-22T00:01:13.874Z,9.21
2022-09-22T00:02:16.113Z,9.21
2022-09-22T00:03:18.286Z,9.22
2022-09-22T00:04:20.454Z,9.23
2022-09-22T00:05:24.114Z,9.23
2022-09-22T00:06:39.065Z,9.23
2022-09-22T00:07:41.367Z,9.23
2022-09-22T00:08:47.165Z,9.24
2022-09-22T00:09:49.304Z,9.24
2022-09-22T00:11:13.980Z,9.24
2022-09-22T00:12:16.313Z,9.25
2022-09-22T00:13:18.486Z,9.24
2022-09-22T00:14:26.108Z,9.24
2022-09-22T00:15:28.339Z,9.23
2022-09-22T00:16:40.094Z,9.23
2022-09-22T00:17:42.792Z,9.23
2022-09-22T00:18:44.959Z,9.23
2022-09-22T00:19:47.132Z,9.23
2022-09-22T00:20:49.473Z,9.23
2022-09-22T00:21:51.753Z,9.23
2022-09-22T00:22:53.858Z,9.23
2022-09-22T00:23:56.017Z,9.22
2022-09-22T00:25:00.221Z,9.23
2022-09-22T00:26:09.463Z,9.21
2022-09-22T00:27:11.653Z,9.21
2022-09-22T00:28:13.869Z,9.21
2022-09-22T00:29:17.442Z,9.21
2022-09-22T00:30:19.594Z,9.20
2022-09-22T00:31:24.444Z,9.20
2022-09-22T00:32:28.748Z,9.20
2022-09-22T00:33:30.920Z,9.19
2022-09-22T00:34:33.205Z,9.18
2022-09-22T00:35:38.384Z,9.18
2022-09-22T00:36:40.565Z,9.18
2022-09-22T00:37:42.714Z,9.18
2022-09-22T00:38:45.405Z,9.17
2022-09-22T00:39:47.584Z,9.17
2022-09-22T00:40:50.024Z,9.16
2022-09-22T00:41:55.220Z,9.15
2022-09-22T00:43:12.975Z,9.16
2022-09-22T00:44:18.679Z,9.15
2022-09-22T00:45:20.824Z,9.14
2022-09-22T00:46:26.853Z,9.14
2022-09-22T00:47:39.297Z,9.13
2022-09-22T00:48:51.153Z,9.12
2022-09-22T00:50:11.538Z,9.11
2022-09-22T00:51:16.778Z,9.10
2022-09-22T00:52:58.963Z,9.09
2022-09-22T00:54:04.665Z,9.08
2022-09-22T00:55:34.573Z,9.07
2022-09-22T00:56:45.285Z,9.06
2022-09-22T00:57:49.076Z,9.06
2022-09-22T00:58:57.776Z,9.04
2022-09-22T01:00:02.726Z,9.03
2022-09-22T01:01:05.199Z,9.03
2022-09-22T01:02:07.503Z,9.02
2022-09-22T01:03:15.932Z,9.01
2022-09-22T01:04:18.324Z,9.00
2022-09-22T01:05:22.353Z,8.99
2022-09-22T01:06:27.948Z,8.99
2022-09-22T01:07:31.263Z,8.98
2022-09-22T01:08:34.361Z,8.97
2022-09-22T01:09:36.592Z,8.97
2022-09-22T01:10:41.671Z,8.97
2022-09-22T01:11:43.906Z,8.95
2022-09-22T01:13:35.053Z,8.93
2022-09-22T01:14:39.877Z,8.93
2022-09-22T01:16:07.722Z,8.93
2022-09-22T01:17:29.854Z,8.91
2022-09-22T01:18:53.526Z,8.90
2022-09-22T01:20:20.972Z,8.87
2022-09-22T01:21:35.296Z,8.87
2022-09-22T01:23:25.334Z,8.86
2022-09-22T01:24:45.550Z,8.84
2022-09-22T01:26:12.264Z,8.83
2022-09-22T01:27:20.297Z,8.82
2022-09-22T01:28:46.875Z,8.80
2022-09-22T01:30:10.902Z,8.79
2022-09-22T01:31:37.315Z,8.79
2022-09-22T01:33:01.032Z,8.76
2022-09-22T01:34:30.253Z,8.75
2022-09-22T01:35:42.785Z,8.74
2022-09-22T01:36:57.211Z,8.73
2022-09-22T01:38:14.676Z,8.71
2022-09-22T01:39:34.419Z,8.70
2022-09-22T01:40:54.768Z,8.69
2022-09-22T01:42:30.441Z,8.67
2022-09-22T01:43:54.414Z,8.65
2022-09-22T01:45:19.496Z,8.64
2022-09-22T01:46:27.078Z,8.62
2022-09-22T01:47:40.689Z,8.61
2022-09-22T01:48:47.830Z,8.59
2022-09-22T01:49:57.153Z,8.59
2022-09-22T01:51:14.576Z,8.58
2022-09-22T01:52:23.436Z,8.55
2022-09-22T01:53:31.369Z,8.55
2022-09-22T01:54:49.787Z,8.54
2022-09-22T01:55:59.402Z,8.53
2022-09-22T01:57:21.298Z,8.52
2022-09-22T01:58:32.263Z,8.50
2022-09-22T01:59:38.684Z,8.49
2022-09-22T02:00:47.459Z,8.48
2022-09-22T02:01:56.107Z,8.47
2022-09-22T02:03:16.928Z,8.45
2022-09-22T02:04:29.743Z,8.44
2022-09-22T02:05:37.001Z,8.43
2022-09-22T02:06:54.334Z,8.42
2022-09-22T02:08:01.184Z,8.41
2022-09-22T02:09:07.387Z,8.39
2022-09-22T02:10:13.554Z,8.38
2022-09-22T02:11:16.321Z,8.36
2022-09-22T02:12:19.448Z,8.34
2022-09-22T02:13:21.604Z,8.34
2022-09-22T02:14:24.997Z,8.33
2022-09-22T02:15:46.955Z,8.32
2022-09-22T02:16:49.182Z,8.30
2022-09-22T02:17:51.347Z,8.30
2022-09-22T02:19:10.380Z,8.28
2022-09-22T02:20:14.550Z,8.26
2022-09-22T02:21:17.466Z,8.25
2022-09-22T02:22:20.984Z,8.24
2022-09-22T02:23:26.284Z,8.23
2022-09-22T02:24:33.249Z,8.21
2022-09-22T02:25:38.408Z,8.20
2022-09-22T02:26:40.584Z,8.19
2022-09-22T02:27:43.323Z,8.18
2022-09-22T02:28:46.195Z,8.18
2022-09-22T02:30:10.573Z,8.15
2022-09-22T02:31:21.341Z,8.15
2022-09-22T02:32:24.613Z,8.14
2022-09-22T02:33:28.343Z,8.12
2022-09-22T02:34:31.004Z,8.12
2022-09-22T02:35:37.103Z,8.11
2022-09-22T02:37:11.962Z,8.09
2022-09-22T02:38:19.985Z,8.08
2022-09-22T02:39:34.942Z,8.08
2022-09-22T02:40:44.007Z,8.06
2022-09-22T02:42:30.433Z,8.03
2022-09-22T02:43:36.699Z,8.02
2022-09-22T02:44:46.509Z,8.01
2022-09-22T02:46:15.393Z,8.00
2022-09-22T02:47:21.889Z,7.98
2022-09-22T02:48:31.945Z,7.95
2022-09-22T02:49:37.636Z,7.93
2022-09-22T02:50:39.875Z,7.93
2022-09-22T02:51:42.644Z,7.91
2022-09-22T02:52:44.909Z,7.91
2022-09-22T02:53:47.153Z,7.88
2022-09-22T02:54:49.313Z,7.88
2022-09-22T02:55:51.600Z,7.86
2022-09-22T02:56:54.297Z,7.85
2022-09-22T02:57:56.522Z,7.84
2022-09-22T02:58:58.952Z,7.82
2022-09-22T03:00:01.465Z,7.82
2022-09-22T03:01:03.941Z,7.80
2022-09-22T03:02:06.074Z,7.79
2022-09-22T03:03:08.358Z,7.79
2022-09-22T03:04:10.545Z,7.77
2022-09-22T03:05:12.772Z,7.76
2022-09-22T03:06:15.015Z,7.76
2022-09-22T03:07:18.612Z,7.75
2022-09-22T03:08:20.812Z,7.72
2022-09-22T03:09:23.071Z,7.71
2022-09-22T03:10:25.418Z,7.70
2022-09-22T03:11:27.552Z,7.68
2022-09-22T03:12:31.424Z,7.67
2022-09-22T03:13:33.586Z,7.65
2022-09-22T03:14:38.761Z,7.64
2022-09-22T03:15:41.058Z,7.62
2022-09-22T03:16:43.233Z,7.62
2022-09-22T03:17:47.349Z,7.61
2022-09-22T03:18:49.501Z,7.59
2022-09-22T03:19:52.738Z,7.58
2022-09-22T03:20:54.857Z,7.56
2022-09-22T03:21:57.022Z,7.55
2022-09-22T03:22:59.171Z,7.54
2022-09-22T03:24:01.939Z,7.52
2022-09-22T03:25:08.606Z,7.51
2022-09-22T03:26:10.840Z,7.49
2022-09-22T03:27:12.983Z,7.48
2022-09-22T03:28:15.251Z,7.47
2022-09-22T03:29:17.413Z,7.44
2022-09-22T03:30:19.614Z,7.43
2022-09-22T03:31:21.932Z,7.42
2022-09-22T03:32:24.175Z,7.41
2022-09-22T03:33:26.299Z,7.39
2022-09-22T03:34:28.436Z,7.37
2022-09-22T03:35:30.592Z,7.35
2022-09-22T03:36:32.888Z,7.35
2022-09-22T03:37:35.484Z,7.33
2022-09-22T03:38:37.631Z,7.32
2022-09-22T03:39:40.276Z,7.32
2022-09-22T03:40:49.882Z,7.30
2022-09-22T03:41:52.059Z,7.27
2022-09-22T03:42:54.859Z,7.26
2022-09-22T03:43:57.029Z,7.25
2022-09-22T03:44:59.318Z,7.23
2022-09-22T03:46:03.372Z,7.21
2022-09-22T03:47:05.887Z,7.20
2022-09-22T03:48:08.069Z,7.19
2022-09-22T03:49:11.194Z,7.18
2022-09-22T03:50:14.179Z,7.17
2022-09-22T03:51:16.557Z,7.16
2022-09-22T03:52:18.725Z,7.14
2022-09-22T03:53:21.167Z,7.13
2022-09-22T03:54:23.624Z,7.12
2022-09-22T03:55:25.890Z,7.12
2022-09-22T03:56:28.094Z,7.11
2022-09-22T03:57:30.532Z,7.09
2022-09-22T03:58:33.229Z,7.07
2022-09-22T03:59:35.499Z,7.07
2022-09-22T04:00:37.717Z,7.06
2022-09-22T04:01:40.234Z,7.06
2022-09-22T04:02:42.878Z,7.05
2022-09-22T04:03:45.056Z,7.04
2022-09-22T04:04:47.283Z,7.03
2022-09-22T04:05:50.721Z,7.03
2022-09-22T04:06:52.928Z,7.01
2022-09-22T04:07:55.193Z,7.02
2022-09-22T04:08:57.438Z,7.01
2022-09-22T04:09:59.557Z,6.99
2022-09-22T04:11:03.899Z,6.99
2022-09-22T04:12:06.644Z,6.98
2022-09-22T04:13:08.799Z,6.97
2022-09-22T04:14:11.112Z,6.97
2022-09-22T04:15:13.384Z,6.96
2022-09-22T04:16:15.579Z,6.95
2022-09-22T04:17:20.657Z,6.95
2022-09-22T04:18:22.897Z,6.95
2022-09-22T04:19:25.077Z,6.93
2022-09-22T04:20:29.981Z,6.92
2022-09-22T04:21:32.416Z,6.91
2022-09-22T04:22:34.686Z,6.89
2022-09-22T04:23:37.091Z,6.90
2022-09-22T04:24:39.287Z,6.90
2022-09-22T04:25:41.781Z,6.89
2022-09-22T04:27:01.858Z,6.88
2022-09-22T04:28:06.915Z,6.87
2022-09-22T04:29:09.114Z,6.86
2022-09-22T04:30:11.879Z,6.86
2022-09-22T04:31:14.156Z,6.84
2022-09-22T04:32:18.428Z,6.84
2022-09-22T04:33:20.881Z,6.83
2022-09-22T04:34:23.097Z,6.82
2022-09-22T04:35:26.866Z,6.82
2022-09-22T04:36:29.098Z,6.80
2022-09-22T04:37:31.306Z,6.79
2022-09-22T04:38:33.490Z,6.78
2022-09-22T04:39:36.403Z,6.77
2022-09-22T04:40:38.630Z,6.76
2022-09-22T04:41:42.001Z,6.74
2022-09-22T04:42:46.560Z,6.73
2022-09-22T04:43:48.756Z,6.72
2022-09-22T04:44:50.929Z,6.71
2022-09-22T04:45:53.228Z,6.70
2022-09-22T04:46:57.232Z,6.67
2022-09-22T04:47:59.379Z,6.67
2022-09-22T04:49:01.581Z,6.66
2022-09-22T04:50:03.977Z,6.66
2022-09-22T04:51:06.146Z,6.64
2022-09-22T04:52:08.297Z,6.64
2022-09-22T04:53:10.609Z,6.63
2022-09-22T04:54:14.175Z,6.62
2022-09-22T04:55:16.759Z,6.62
2022-09-22T04:56:18.870Z,6.61
2022-09-22T04:57:20.993Z,6.61
2022-09-22T04:58:23.191Z,6.61
2022-09-22T04:59:25.445Z,6.60
2022-09-22T05:00:29.499Z,6.60
2022-09-22T05:01:31.724Z,6.59
2022-09-22T05:02:35.575Z,6.57
2022-09-22T05:03:39.461Z,6.57
2022-09-22T05:04:41.688Z,6.57
2022-09-22T05:05:43.827Z,6.55
2022-09-22T05:06:45.971Z,6.54
2022-09-22T05:07:52.899Z,6.54
2022-09-22T05:08:55.673Z,6.53
2022-09-22T05:09:58.031Z,6.52
2022-09-22T05:11:03.199Z,6.52
2022-09-22T05:12:05.544Z,6.50
2022-09-22T05:13:08.328Z,6.51
2022-09-22T05:14:10.721Z,6.51
2022-09-22T05:15:14.729Z,6.50
2022-09-22T05:16:18.185Z,6.49
2022-09-22T05:17:20.798Z,6.49
2022-09-22T05:18:23.700Z,6.49
2022-09-22T05:19:25.839Z,6.48
2022-09-22T05:20:28.120Z,6.48
2022-09-22T05:21:30.307Z,6.48
2022-09-22T05:22:36.346Z,6.48
2022-09-22T05:23:41.347Z,6.48
2022-09-22T05:24:45.837Z,6.49
2022-09-22T05:25:47.994Z,6.48
2022-09-22T05:26:50.499Z,6.50
2022-09-22T05:27:54.579Z,6.50
2022-09-22T05:28:57.691Z,6.51
2022-09-22T05:29:59.846Z,6.52
2022-09-22T05:31:03.062Z,6.53
2022-09-22T05:32:05.433Z,6.55
2022-09-22T05:33:07.625Z,6.56
2022-09-22T05:34:09.848Z,6.57
2022-09-22T05:35:14.031Z,6.59
2022-09-22T05:36:17.091Z,6.61
2022-09-22T05:37:19.218Z,6.62
2022-09-22T05:38:21.355Z,6.64
2022-09-22T05:39:23.657Z,6.65
2022-09-22T05:40:26.845Z,6.67
2022-09-22T05:41:29.034Z,6.68
2022-09-22T05:42:31.153Z,6.70
2022-09-22T05:43:33.319Z,6.71
2022-09-22T05:44:35.551Z,6.73
2022-09-22T05:45:37.716Z,6.74
2022-09-22T05:46:40.038Z,6.77
2022-09-22T05:47:43.405Z,6.79
2022-09-22T05:48:45.529Z,6.80
2022-09-22T05:49:47.716Z,6.82
2022-09-22T05:50:49.847Z,6.83
2022-09-22T05:51:55.581Z,6.86
2022-09-22T05:53:06.455Z,6.88
2022-09-22T05:54:09.999Z,6.90
2022-09-22T05:55:13.281Z,6.92
2022-09-22T05:56:17.903Z,6.95
2022-09-22T05:57:25.878Z,6.98
2022-09-22T05:58:28.109Z,7.03
2022-09-22T05:59:30.256Z,7.08
2022-09-22T06:00:33.419Z,7.13
2022-09-22T06:01:35.571Z,7.17
2022-09-22T06:02:38.716Z,7.25
2022-09-22T06:03:40.917Z,7.33
2022-09-22T06:04:43.042Z,7.40
2022-09-22T06:05:45.774Z,7.50
2022-09-22T06:06:48.008Z,7.58
2022-09-22T06:08:01.576Z,7.69
2022-09-22T06:09:04.148Z,7.78
2022-09-22T06:10:07.062Z,7.89
2022-09-22T06:11:09.284Z,8.01
2022-09-22T06:12:11.920Z,8.13
2022-09-22T06:13:14.091Z,8.24
2022-09-22T06:14:16.272Z,8.35
2022-09-22T06:15:18.407Z,8.48
2022-09-22T06:16:21.235Z,8.59
2022-09-22T06:17:26.271Z,8.72
2022-09-22T06:18:31.606Z,8.84
2022-09-22T06:19:35.149Z,8.97
2022-09-22T06:20:38.098Z,9.09
2022-09-22T06:21:40.298Z,9.20
2022-09-22T06:22:42.536Z,9.32
2022-09-22T06:23:44.997Z,9.44
2022-09-22T06:24:48.920Z,9.56
2022-09-22T06:25:56.807Z,9.69
2022-09-22T06:26:58.945Z,9.82
2022-09-22T06:28:09.986Z,9.97
2022-09-22T06:29:12.206Z,10.09
2022-09-22T06:30:14.349Z,10.23
2022-09-22T06:31:16.557Z,10.37
2022-09-22T06:32:19.625Z,10.51
2022-09-22T06:33:23.968Z,10.66
2022-09-22T06:34:27.419Z,10.79
2022-09-22T06:35:36.650Z,10.95
2022-09-22T06:36:43.139Z,11.10
2022-09-22T06:37:45.427Z,11.24
2022-09-22T06:38:47.547Z,11.39
2022-09-22T06:39:49.810Z,11.55
2022-09-22T06:40:52.265Z,11.68
2022-09-22T06:41:56.497Z,11.83
2022-09-22T06:43:00.146Z,11.98
2022-09-22T06:44:02.733Z,12.13
2022-09-22T06:45:05.327Z,12.28
2022-09-22T06:46:07.868Z,12.43
2022-09-22T06:47:10.226Z,12.58
2022-09-22T06:48:12.551Z,12.72
2022-09-22T06:49:14.721Z,12.85
2022-09-22T06:50:17.815Z,13.00
2022-09-22T06:51:19.994Z,13.12
2022-09-22T06:52:22.125Z,13.27
2022-09-22T06:53:27.363Z,13.40
2022-09-22T06:54:30.343Z,13.53
2022-09-22T06:55:33.036Z,13.65
2022-09-22T06:56:43.113Z,13.77
2022-09-22T06:57:45.317Z,13.93
2022-09-22T06:59:08.790Z,14.04
2022-09-22T07:00:13.427Z,14.20
2022-09-22T07:01:19.494Z,14.35
2022-09-22T07:02:28.271Z,14.47
2022-09-22T07:03:31.194Z,14.57
2022-09-22T07:04:34.869Z,14.68
2022-09-22T07:05:37.340Z,14.79
2022-09-22T07:06:40.732Z,14.88
2022-09-22T07:07:42.944Z,14.99
2022-09-22T07:08:47.089Z,15.08
2022-09-22T07:09:49.275Z,15.18
2022-09-22T07:10:56.927Z,15.28
2022-09-22T07:12:00.373Z,15.36
2022-09-22T07:13:02.824Z,15.44
2022-09-22T07:14:05.002Z,15.52
2022-09-22T07:15:07.840Z,15.63
2022-09-22T07:16:13.772Z,15.73
2022-09-22T07:17:18.865Z,15.83
2022-09-22T07:18:21.022Z,15.95
2022-09-22T07:19:23.212Z,16.06
2022-09-22T07:20:25.385Z,16.17
2022-09-22T07:21:31.927Z,16.28
2022-09-22T07:22:39.592Z,16.40
2022-09-22T07:23:44.348Z,16.54
2022-09-22T07:24:46.592Z,16.65
2022-09-22T07:25:56.547Z,16.76
2022-09-22T07:27:05.135Z,16.87
2022-09-22T07:29:16.215Z,17.10
2022-09-22T07:30:21.916Z,17.24
2022-09-22T07:31:28.588Z,17.35
2022-09-22T07:32:32.559Z,17.46
2022-09-22T07:33:36.451Z,17.57
2022-09-22T07:34:38.655Z,17.68
2022-09-22T07:35:41.235Z,17.77
2022-09-22T07:36:43.371Z,17.88
2022-09-22T07:37:46.694Z,17.99
2022-09-22T07:38:51.745Z,18.10
2022-09-22T07:39:53.909Z,18.20
2022-09-22T07:40:56.061Z,18.30
2022-09-22T07:41:58.971Z,18.40
2022-09-22T07:43:02.731Z,18.52
2022-09-22T07:44:23.340Z,18.63
2022-09-22T07:45:25.504Z,18.75
2022-09-22T07:46:27.691Z,18.85
2022-09-22T07:47:48.323Z,18.93
2022-09-22T07:48:50.540Z,19.06
2022-09-22T07:49:52.710Z,19.15
2022-09-22T07:50:55.053Z,19.25
2022-09-22T07:51:57.945Z,19.34
2022-09-22T07:53:00.176Z,19.42
2022-09-22T07:54:09.589Z,19.50
2022-09-22T07:55:11.809Z,19.61
2022-09-22T07:56:17.068Z,19.69
2022-09-22T07:57:21.508Z,19.76
2022-09-22T07:58:23.781Z,19.83
2022-09-22T07:59:26.639Z,19.93
2022-09-22T08:00:33.872Z,20.00
2022-09-22T08:01:38.086Z,20.08
2022-09-22T08:02:41.254Z,20.15
2022-09-22T08:03:44.577Z,20.23
2022-09-22T08:04:46.729Z,20.30
2022-09-22T08:05:52.099Z,20.36
2022-09-22T08:06:56.500Z,20.44
2022-09-22T08:07:58.825Z,20.50
2022-09-22T08:09:05.536Z,20.56
2022-09-22T08:10:08.252Z,20.62
2022-09-22T08:11:14.995Z,20.68
2022-09-22T08:12:17.206Z,20.72
2022-09-22T08:13:20.593Z,20.77
2022-09-22T08:14:24.240Z,20.83
2022-09-22T08:15:27.453Z,20.89
2022-09-22T08:16:33.442Z,20.95
2022-09-22T08:17:35.699Z,20.99
2022-09-22T08:18:39.734Z,21.04
2022-09-22T08:19:42.110Z,21.08
2022-09-22T08:20:45.102Z,21.14
2022-09-22T08:21:50.561Z,21.17
2022-09-22T08:22:53.925Z,21.22
2022-09-22T08:23:56.073Z,21.27
2022-09-22T08:24:58.263Z,21.32
2022-09-22T08:26:08.546Z,21.35
2022-09-22T08:27:10.721Z,21.40
2022-09-22T08:28:12.860Z,21.44
2022-09-22T08:29:15.102Z,21.47
2022-09-22T08:30:18.975Z,21.53
2022-09-22T08:31:22.712Z,21.55
2022-09-22T08:32:26.757Z,21.61
2022-09-22T08:33:32.372Z,21.63
2022-09-22T08:34:34.657Z,21.68
2022-09-22T08:35:37.497Z,21.72
2022-09-22T08:36:39.992Z,21.76
2022-09-22T08:37:44.228Z,21.81
2022-09-22T08:38:49.760Z,21.83
2022-09-22T08:39:51.976Z,21.86
2022-09-22T08:41:29.219Z,21.90
2022-09-22T08:42:34.229Z,21.93
2022-09-22T08:43:44.442Z,21.94
2022-09-22T08:44:58.273Z,21.97
2022-09-22T08:46:04.496Z,21.99
2022-09-22T08:47:10.479Z,22.02
2022-09-22T08:48:44.299Z,22.02
2022-09-22T08:50:07.892Z,22.02
2022-09-22T08:51:45.585Z,22.03
2022-09-22T08:52:55.514Z,22.06
2022-09-22T08:54:03.071Z,22.06
2022-09-22T08:55:11.254Z,22.10
2022-09-22T08:56:29.306Z,22.14
2022-09-22T08:57:46.787Z,22.16
2022-09-22T08:59:02.273Z,22.19
2022-09-22T09:00:06.582Z,22.21
2022-09-22T09:01:30.522Z,22.25
2022-09-22T09:02:58.710Z,22.28
2022-09-22T09:04:21.269Z,22.30
2022-09-22T09:06:04.729Z,22.35
2022-09-22T09:07:36.099Z,22.38
2022-09-22T09:09:05.267Z,22.44
2022-09-22T09:10:28.410Z,22.47
2022-09-22T09:11:58.331Z,22.50
2022-09-22T09:13:32.480Z,22.50
2022-09-22T09:14:47.429Z,22.51
2022-09-22T09:16:14.507Z,22.53
2022-09-22T09:17:28.948Z,22.57
2022-09-22T09:18:34.774Z,22.59
2022-09-22T09:19:46.421Z,22.62
2022-09-22T09:20:52.257Z,22.63
2022-09-22T09:22:00.254Z,22.65
2022-09-22T09:23:10.723Z,22.67
2022-09-22T09:25:50.784Z,22.74
2022-09-22T09:26:53.884Z,22.76
2022-09-22T09:28:01.459Z,22.76
2022-09-22T09:29:14.000Z,22.80
2022-09-22T09:30:19.077Z,22.83
2022-09-22T09:31:32.320Z,22.83
2022-09-22T09:32:50.163Z,22.83
2022-09-22T09:34:19.956Z,22.80
2022-09-22T09:35:39.628Z,22.77
2022-09-22T09:36:52.956Z,22.77
2022-09-22T09:37:59.583Z,22.75
2022-09-22T09:39:13.158Z,22.72
2022-09-22T09:40:19.620Z,22.70
2022-09-22T09:41:31.916Z,22.70
2022-09-22T09:42:36.961Z,22.68
2022-09-22T09:43:42.903Z,22.68
2022-09-22T09:44:46.744Z,22.67
2022-09-22T09:45:51.814Z,22.65
2022-09-22T09:47:07.933Z,22.63
2022-09-22T09:48:16.048Z,22.63
2022-09-22T09:49:20.903Z,22.60
2022-09-22T09:50:25.266Z,22.56
2022-09-22T09:51:28.856Z,22.51
2022-09-22T09:52:31.270Z,22.46
2022-09-22T09:53:43.571Z,22.41
2022-09-22T09:54:47.364Z,22.34
2022-09-22T09:55:50.794Z,22.27
2022-09-22T09:57:18.493Z,22.19
2022-09-22T09:58:38.979Z,22.09
2022-09-22T10:00:08.538Z,21.98
2022-09-22T10:01:16.598Z,21.83
2022-09-22T10:02:31.794Z,21.74
2022-09-22T10:03:42.696Z,21.63
2022-09-22T10:04:54.806Z,21.53
2022-09-22T10:06:04.582Z,21.41
2022-09-22T10:07:15.319Z,21.31
2022-09-22T10:08:21.255Z,21.17
2022-09-22T10:09:28.657Z,21.06
2022-09-22T10:10:37.509Z,20.95
2022-09-22T10:11:39.734Z,20.83
2022-09-22T10:12:41.889Z,20.72
2022-09-22T10:13:44.396Z,20.59
2022-09-22T10:14:53.666Z,20.47
2022-09-22T10:16:01.967Z,20.36
2022-09-22T10:17:20.470Z,20.23
2022-09-22T10:18:25.550Z,20.11
2022-09-22T10:19:30.652Z,20.02
2022-09-22T10:20:34.188Z,19.92
2022-09-22T10:21:37.815Z,19.84
2022-09-22T10:22:40.646Z,19.77
2022-09-22T10:23:47.862Z,19.71
2022-09-22T10:24:54.445Z,19.64
2022-09-22T10:26:21.764Z,19.58
2022-09-22T10:27:26.138Z,19.53
2022-09-22T10:28:28.309Z,19.51
2022-09-22T10:29:30.502Z,19.48
2022-09-22T10:30:37.565Z,19.45
2022-09-22T10:31:41.843Z,19.43
2022-09-22T10:33:05.625Z,19.42
2022-09-22T10:34:40.968Z,19.40
2022-09-22T10:36:09.262Z,19.40
2022-09-22T10:37:17.054Z,19.37
2022-09-22T10:38:22.221Z,19.37
2022-09-22T10:39:37.210Z,19.37
2022-09-22T10:40:44.181Z,19.36
2022-09-22T10:41:48.919Z,19.38
2022-09-22T10:42:53.031Z,19.38
2022-09-22T10:44:15.269Z,19.40
2022-09-22T10:45:47.115Z,19.41
2022-09-22T10:46:49.973Z,19.41
2022-09-22T10:48:11.824Z,19.43
2022-09-22T10:50:05.361Z,19.45
2022-09-22T10:51:21.800Z,19.47
2022-09-22T10:52:41.502Z,19.48
2022-09-22T10:54:08.570Z,19.52
2022-09-22T10:55:22.935Z,19.55
2022-09-22T10:56:41.468Z,19.56
2022-09-22T10:58:02.063Z,19.59
2022-09-22T10:59:22.287Z,19.65
2022-09-22T11:00:26.924Z,19.67
2022-09-22T11:01:47.126Z,19.71
2022-09-22T11:03:13.547Z,19.74
2022-09-22T11:04:21.733Z,19.76
2022-09-22T11:05:49.792Z,19.79
2022-09-22T11:07:26.231Z,19.82
2022-09-22T11:08:55.677Z,19.83
2022-09-22T11:10:21.186Z,19.83
2022-09-22T11:11:51.731Z,19.82
2022-09-22T11:13:01.088Z,19.79
2022-09-22T11:14:40.791Z,19.77
2022-09-22T11:16:24.546Z,19.75
2022-09-22T11:17:46.917Z,19.70
2022-09-22T11:19:09.887Z,19.67
2022-09-22T11:20:37.021Z,19.64
2022-09-22T11:21:39.128Z,19.58
2022-09-22T11:22:54.354Z,19.56
2022-09-22T11:24:13.103Z,19.49
2022-09-22T11:25:33.986Z,19.41
2022-09-22T11:26:48.230Z,19.34
2022-09-22T11:27:56.451Z,19.29
2022-09-22T11:29:06.800Z,19.24
2022-09-22T11:30:18.361Z,19.17
2022-09-22T11:31:47.295Z,19.11
2022-09-22T11:33:00.061Z,19.05
2022-09-22T11:34:23.259Z,19.00
2022-09-22T11:35:34.520Z,18.93
2022-09-22T11:36:58.915Z,18.87
2022-09-22T11:38:28.598Z,18.81
2022-09-22T11:39:59.796Z,18.75
2022-09-22T11:41:28.938Z,18.70
2022-09-22T11:43:03.780Z,18.64
2022-09-22T11:44:30.188Z,18.56
2022-09-22T11:45:55.723Z,18.50
2022-09-22T11:47:16.152Z,18.44
2022-09-22T11:48:55.849Z,18.38
2022-09-22T11:50:23.206Z,18.33
2022-09-22T11:51:44.014Z,18.26
2022-09-22T11:53:24.242Z,18.21
2022-09-22T11:54:54.337Z,18.14
2022-09-22T11:56:23.704Z,18.08
2022-09-22T11:57:31.778Z,18.03
2022-09-22T11:58:41.223Z,18.01
2022-09-22T12:00:05.730Z,17.94
2022-09-22T12:01:19.247Z,17.90
2022-09-22T12:02:29.515Z,17.87
2022-09-22T12:03:47.317Z,17.82
2022-09-22T12:05:02.122Z,17.77
2022-09-22T12:06:12.753Z,17.74
2022-09-22T12:07:24.570Z,17.71
2022-09-22T12:08:32.561Z,17.68
2022-09-22T12:09:46.054Z,17.66
2022-09-22T12:10:50.219Z,17.63
2022-09-22T12:11:56.213Z,17.60
2022-09-22T12:12:58.548Z,17.59
2022-09-22T12:14:01.038Z,17.58
2022-09-22T12:15:19.351Z,17.54
2022-09-22T12:16:42.007Z,17.52
2022-09-22T12:17:54.134Z,17.50
2022-09-22T12:19:03.646Z,17.47
2022-09-22T12:20:16.404Z,17.46
2022-09-22T12:21:46.040Z,17.44
2022-09-22T12:22:48.119Z,17.43
2022-09-22T12:23:52.268Z,17.41
2022-09-22T12:24:54.432Z,17.36
2022-09-22T12:26:01.487Z,17.35
2022-09-22T12:27:12.051Z,17.32
2022-09-22T12:28:23.245Z,17.30
2022-09-22T12:29:30.684Z,17.29
2022-09-22T12:30:33.146Z,17.26
2022-09-22T12:31:38.071Z,17.25
2022-09-22T12:32:42.744Z,17.22
2022-09-22T12:33:49.984Z,17.19
2022-09-22T12:34:56.248Z,17.18
2022-09-22T12:35:59.365Z,17.17
2022-09-22T12:37:29.778Z,17.13
2022-09-22T12:38:32.352Z,17.11
2022-09-22T12:39:41.993Z,17.10
2022-09-22T12:40:50.340Z,17.09
2022-09-22T12:42:06.037Z,17.05
2022-09-22T12:43:19.545Z,17.04
2022-09-22T12:44:25.190Z,17.03
2022-09-22T12:45:37.534Z,17.01
2022-09-22T12:46:43.252Z,16.99
2022-09-22T12:47:50.741Z,16.97
2022-09-22T12:48:53.545Z,16.96
2022-09-22T12:50:01.765Z,16.96
2022-09-22T12:51:17.398Z,16.95
2022-09-22T12:52:39.937Z,16.93
2022-09-22T12:53:43.861Z,16.92
2022-09-22T12:54:46.998Z,16.92
2022-09-22T12:55:51.218Z,16.93
2022-09-22T12:56:56.125Z,16.93
2022-09-22T12:58:00.135Z,16.92
2022-09-22T12:59:02.256Z,16.92
2022-09-22T13:00:17.730Z,16.92
2022-09-22T13:01:33.091Z,16.93
2022-09-22T13:02:43.162Z,16.93
2022-09-22T13:03:50.778Z,16.93
2022-09-22T13:04:56.017Z,16.93
2022-09-22T13:06:04.356Z,16.93
2022-09-22T13:07:45.457Z,16.92
2022-09-22T13:08:53.756Z,16.92
2022-09-22T13:10:23.974Z,16.91
2022-09-22T13:12:03.847Z,16.92
2022-09-22T13:13:05.985Z,16.89
2022-09-22T13:14:57.049Z,16.89
2022-09-22T13:16:03.424Z,16.88
2022-09-22T13:17:43.575Z,16.88
2022-09-22T13:19:01.594Z,16.87
2022-09-22T13:20:18.597Z,16.87
2022-09-22T13:21:26.760Z,16.87
2022-09-22T13:22:28.944Z,16.86
2022-09-22T13:23:31.126Z,16.85
2022-09-22T13:24:33.285Z,16.84
2022-09-22T13:25:35.581Z,16.83
2022-09-22T13:26:41.265Z,16.83
2022-09-22T13:27:43.476Z,16.84
2022-09-22T13:29:13.133Z,16.83
2022-09-22T13:30:15.343Z,16.83
2022-09-22T13:31:18.007Z,16.83
2022-09-22T13:32:26.964Z,16.82
2022-09-22T13:33:33.927Z,16.82
2022-09-22T13:34:37.003Z,16.81
2022-09-22T13:35:41.131Z,16.80
2022-09-22T13:36:44.712Z,16.80
2022-09-22T13:37:47.212Z,16.79
2022-09-22T13:38:56.310Z,16.77
2022-09-22T13:39:58.465Z,16.76
2022-09-22T13:41:00.906Z,16.75
2022-09-22T13:42:08.432Z,16.73
2022-09-22T13:43:12.403Z,16.73
2022-09-22T13:44:17.221Z,16.73
2022-09-22T13:45:26.173Z,16.72
2022-09-22T13:46:40.304Z,16.73
2022-09-22T13:47:43.618Z,16.73
2022-09-22T13:48:45.917Z,16.71
2022-09-22T13:49:57.710Z,16.71
2022-09-22T13:51:04.563Z,16.70
2022-09-22T13:52:22.174Z,16.68
2022-09-22T13:53:24.730Z,16.66
2022-09-22T13:54:31.593Z,16.65
2022-09-22T13:55:36.126Z,16.62
2022-09-22T13:56:38.671Z,16.62
2022-09-22T13:57:42.368Z,16.60
2022-09-22T13:58:46.761Z,16.58
2022-09-22T13:59:51.660Z,16.53
2022-09-22T14:01:12.964Z,16.52
2022-09-22T14:02:22.294Z,16.51
2022-09-22T14:03:25.173Z,16.49
2022-09-22T14:04:27.695Z,16.48
2022-09-22T14:05:33.681Z,16.46
2022-09-22T14:06:36.964Z,16.43
2022-09-22T14:07:55.198Z,16.41
2022-09-22T14:09:03.804Z,16.40
2022-09-22T14:10:09.280Z,16.36
2022-09-22T14:11:28.185Z,16.32
2022-09-22T14:12:30.583Z,16.29
2022-09-22T14:13:59.365Z,16.28
2022-09-22T14:15:33.642Z,16.25
2022-09-22T14:16:46.766Z,16.21
2022-09-22T14:17:49.172Z,16.17
2022-09-22T14:18:58.894Z,16.14
2022-09-22T14:20:04.595Z,16.09
2022-09-22T14:21:10.751Z,16.08
2022-09-22T14:22:22.146Z,16.05
2022-09-22T14:23:30.828Z,16.02
2022-09-22T14:24:39.450Z,16.00
2022-09-22T14:25:43.089Z,15.99
2022-09-22T14:26:54.928Z,15.96
2022-09-22T14:27:59.884Z,15.93
2022-09-22T14:29:23.235Z,15.91
2022-09-22T14:30:31.230Z,15.87
2022-09-22T14:31:35.948Z,15.84
2022-09-22T14:32:47.131Z,15.82
2022-09-22T14:33:49.549Z,15.79
2022-09-22T14:34:58.675Z,15.76
2022-09-22T14:36:03.476Z,15.75
2022-09-22T14:37:31.250Z,15.72
2022-09-22T14:38:41.961Z,15.69
2022-09-22T14:39:47.417Z,15.67
2022-09-22T14:41:03.225Z,15.64
2022-09-22T14:42:20.614Z,15.61
2022-09-22T14:43:24.123Z,15.59
2022-09-22T14:44:35.316Z,15.56
2022-09-22T14:45:59.628Z,15.55
2022-09-22T14:47:28.226Z,15.52
2022-09-22T14:48:39.141Z,15.50
2022-09-22T14:49:44.638Z,15.49
2022-09-22T14:50:46.989Z,15.47
2022-09-22T14:51:49.558Z,15.45
2022-09-22T14:53:17.975Z,15.42
2022-09-22T14:54:20.764Z,15.42
2022-09-22T14:55:29.568Z,15.40
2022-09-22T14:56:34.328Z,15.39
2022-09-22T14:57:36.600Z,15.37
2022-09-22T14:58:41.679Z,15.36
2022-09-22T15:00:10.663Z,15.36
2022-09-22T15:01:39.676Z,15.34